Time;durP1;ratioP1;P1;durP2;ratioP2;P2;SDS_P1;SDS_P2;PMS_P1;PMS_P2;Temp;Humidity;BMP_temperature;BMP_pressure;BME280_temperature;BME280_humidity;BME280_pressure;Samples;Min_cycle;Max_cycle;Signal;HPM_P1;HPM_P2
2021/06/06 00:01:00;;;;;;;7.18;6.50;;;11.20;99.90;;;;;;5091248;28;20020;-77
2021/06/06 00:03:28;;;;;;;6.30;5.70;;;11.20;99.90;;;;;;5092111;28;20035;-77
2021/06/06 00:06:01;;;;;;;6.18;5.65;;;11.10;99.90;;;;;;5091053;28;20165;-77
2021/06/06 00:08:28;;;;;;;6.78;6.05;;;11.00;99.90;;;;;;5092400;28;20032;-78
2021/06/06 00:10:59;;;;;;;8.02;6.18;;;11.00;99.90;;;;;;5090884;28;20539;-78
2021/06/06 00:13:27;;;;;;;9.23;6.87;;;11.00;99.90;;;;;;5092386;28;20081;-77
2021/06/06 00:15:53;;;;;;;7.53;6.28;;;10.90;99.90;;;;;;5092376;28;20024;-77
2021/06/06 00:18:19;;;;;;;9.88;6.53;;;11.00;99.90;;;;;;5091310;28;20496;-77
2021/06/06 00:20:45;;;;;;;7.28;6.43;;;11.00;99.90;;;;;;5090602;28;20016;-77
2021/06/06 00:23:11;;;;;;;9.55;7.93;;;11.00;99.90;;;;;;5092040;28;20039;-78
2021/06/06 00:25:37;;;;;;;9.68;7.68;;;11.00;99.90;;;;;;5092097;28;20028;-77
2021/06/06 00:28:04;;;;;;;10.38;6.43;;;11.00;99.90;;;;;;5092189;28;20505;-77
2021/06/06 00:30:31;;;;;;;12.02;7.82;;;11.00;99.90;;;;;;5091451;28;20388;-78
2021/06/06 00:32:56;;;;;;;11.57;7.15;;;10.90;99.90;;;;;;5094520;28;20016;-78
2021/06/06 00:35:24;;;;;;;10.20;8.55;;;10.90;99.90;;;;;;5095697;28;20036;-78
2021/06/06 00:37:50;;;;;;;12.52;8.32;;;10.90;99.90;;;;;;5095738;28;20024;-78
2021/06/06 00:40:21;;;;;;;10.70;8.20;;;10.90;99.90;;;;;;5094502;28;20020;-78
2021/06/06 00:42:47;;;;;;;8.77;7.93;;;10.90;99.90;;;;;;5094384;28;20039;-78
2021/06/06 00:45:16;;;;;;;7.97;7.18;;;10.80;99.90;;;;;;5094419;28;20016;-78
2021/06/06 00:47:41;;;;;;;5.72;5.00;;;10.70;99.90;;;;;;5095932;28;20116;-78
2021/06/06 00:50:12;;;;;;;6.97;6.28;;;10.60;99.90;;;;;;5093745;28;20473;-78
2021/06/06 00:52:39;;;;;;;8.55;7.50;;;10.60;99.90;;;;;;5094732;28;20405;-78
2021/06/06 00:55:08;;;;;;;9.15;8.02;;;10.50;99.90;;;;;;5095210;28;20093;-78
2021/06/06 00:57:36;;;;;;;10.93;8.73;;;10.50;99.90;;;;;;5095385;28;20028;-78
2021/06/06 01:00:20;;;;;;;12.95;9.30;;;10.50;99.90;;;;;;5095152;28;20020;-77
2021/06/06 01:02:47;;;;;;;13.88;11.18;;;10.50;99.90;;;;;;5075040;28;20504;-77
2021/06/06 01:05:35;;;;;;;14.50;10.65;;;10.50;99.90;;;;;;5075060;28;20028;-78
2021/06/06 01:08:05;;;;;;;9.23;7.57;;;10.50;99.90;;;;;;5073586;28;20044;-78
2021/06/06 01:10:32;;;;;;;9.00;8.10;;;10.50;99.90;;;;;;5073708;28;20020;-78
2021/06/06 01:13:09;;;;;;;8.70;7.40;;;10.50;99.90;;;;;;5073483;28;20032;-78
2021/06/06 01:15:37;;;;;;;8.27;7.47;;;10.40;99.90;;;;;;5073616;28;20170;-78
2021/06/06 01:18:10;;;;;;;7.38;6.65;;;10.40;99.90;;;;;;5073436;28;20025;-78
2021/06/06 01:20:45;;;;;;;6.78;6.07;;;10.40;99.90;;;;;;5090748;28;20040;-78
2021/06/06 01:23:35;;;;;;;4.95;4.55;;;10.30;99.90;;;;;;5093632;28;20443;-78
2021/06/06 01:26:07;;;;;;;6.28;5.20;;;10.30;99.90;;;;;;5093629;28;20504;-78
2021/06/06 01:28:55;;;;;;;4.68;4.32;;;10.10;99.90;;;;;;5093455;28;20028;-78
2021/06/06 01:31:24;;;;;;;4.95;4.55;;;10.10;99.90;;;;;;5088356;28;20040;-78
2021/06/06 01:33:57;;;;;;;5.20;4.80;;;10.00;99.90;;;;;;5093113;28;20488;-78
2021/06/06 01:36:31;;;;;;;;;;;9.90;99.90;;;;;;5093921;28;20380;-77
2021/06/06 01:39:05;;;;;;;8.45;7.18;;;9.80;99.90;;;;;;5093063;28;19904;-78
2021/06/06 01:41:35;;;;;;;10.00;8.40;;;9.80;99.90;;;;;;5093230;28;20024;-78
2021/06/06 01:44:05;;;;;;;10.43;8.50;;;9.70;99.90;;;;;;5094485;28;20024;-77
2021/06/06 01:46:38;;;;;;;7.93;7.22;;;9.70;99.90;;;;;;5094620;28;20024;-78
2021/06/06 01:49:06;;;;;;;10.48;7.35;;;9.70;99.90;;;;;;5094110;28;20460;-77
2021/06/06 01:51:36;;;;;;;9.15;7.53;;;9.70;99.90;;;;;;5093110;28;20024;-77
2021/06/06 01:54:05;;;;;;;7.30;6.03;;;9.70;99.90;;;;;;5094254;28;20028;-77
2021/06/06 01:56:35;;;;;;;8.52;6.97;;;9.80;99.90;;;;;;5093964;28;20012;-78
2021/06/06 01:59:23;;;;;;;6.93;6.28;;;9.70;99.90;;;;;;5092962;28;20056;-77
2021/06/06 02:01:49;;;;;;;7.85;6.57;;;9.70;99.90;;;;;;5093805;28;20509;-77
2021/06/06 02:04:16;;;;;;;6.88;6.28;;;9.80;99.90;;;;;;5094262;28;20032;-77
2021/06/06 02:06:48;;;;;;;7.70;6.90;;;9.80;99.90;;;;;;5092565;28;20032;-77
2021/06/06 02:09:22;;;;;;;7.00;6.40;;;9.80;99.90;;;;;;5092793;28;20053;-77
2021/06/06 02:11:56;;;;;;;7.03;6.43;;;9.80;99.90;;;;;;5093146;28;20023;-77
2021/06/06 02:14:27;;;;;;;9.82;7.35;;;9.80;99.90;;;;;;5092689;28;20470;-78
2021/06/06 02:16:55;;;;;;;9.25;8.32;;;9.70;99.90;;;;;;5093685;28;20488;-77
2021/06/06 02:19:24;;;;;;;9.80;8.13;;;9.70;99.90;;;;;;5092391;28;20142;-78
2021/06/06 02:21:52;;;;;;;8.60;7.72;;;9.70;99.90;;;;;;5093720;28;20550;-78
2021/06/06 02:24:18;;;;;;;11.65;7.70;;;9.70;99.90;;;;;;5092536;28;20016;-77
2021/06/06 02:26:47;;;;;;;10.25;8.20;;;9.70;99.90;;;;;;5092381;28;20024;-77
2021/06/06 02:29:38;;;;;;;9.75;8.27;;;9.70;99.90;;;;;;5093665;28;20028;-77
2021/06/06 02:32:11;;;;;;;8.20;6.85;;;9.70;99.90;;;;;;5092107;28;20024;-77
2021/06/06 02:34:55;;;;;;;;;;;9.70;99.90;;;;;;5092737;28;20610;-78
2021/06/06 02:37:33;;;;;;;8.85;7.00;;;9.70;99.90;;;;;;5093659;28;19904;-78
2021/06/06 02:40:09;;;;;;;7.65;6.82;;;9.70;99.90;;;;;;5091882;28;20020;-78
2021/06/06 02:42:41;;;;;;;10.57;7.60;;;9.70;99.90;;;;;;5091992;28;20078;-77
2021/06/06 02:45:13;;;;;;;8.50;7.57;;;9.70;99.90;;;;;;5092201;28;20031;-77
2021/06/06 02:47:40;;;;;;;9.82;7.20;;;9.80;99.90;;;;;;5092679;28;20401;-77
2021/06/06 02:50:20;;;;;;;7.97;7.18;;;9.70;99.90;;;;;;5091899;28;20392;-77
2021/06/06 02:52:51;;;;;;;9.50;7.22;;;9.70;99.90;;;;;;5093251;28;20121;-77
2021/06/06 02:55:42;;;;;;;8.82;7.93;;;9.80;99.90;;;;;;5091751;28;20105;-77
2021/06/06 02:58:25;;;;;;;7.85;7.05;;;9.70;99.90;;;;;;5083844;28;20203;-78
2021/06/06 03:00:53;;;;;;;;;;;9.60;99.90;;;;;;5093479;28;20481;-77
2021/06/06 03:03:27;;;;;;;8.70;6.90;;;9.50;99.90;;;;;;5091886;28;20265;-77
2021/06/06 03:05:56;;;;;;;8.20;7.30;;;9.50;99.90;;;;;;5125935;27;20043;-78
2021/06/06 03:08:23;;;;;;;8.88;8.02;;;9.50;99.90;;;;;;5091784;28;20460;-78
2021/06/06 03:10:50;;;;;;;9.70;8.70;;;9.50;99.90;;;;;;5092042;28;20035;-78
2021/06/06 03:13:32;;;;;;;12.13;9.93;;;9.60;99.90;;;;;;5091778;28;20027;-78
2021/06/06 03:16:00;;;;;;;13.32;10.13;;;9.70;99.90;;;;;;5093129;28;20036;-77
2021/06/06 03:18:29;;;;;;;11.73;9.68;;;9.80;99.90;;;;;;5093016;28;20091;-77
2021/06/06 03:21:03;;;;;;;14.38;10.52;;;9.80;99.90;;;;;;5091352;28;20028;-77
2021/06/06 03:23:31;;;;;;;14.52;11.68;;;10.00;99.90;;;;;;5093003;28;20474;-77
2021/06/06 03:26:04;;;;;;;16.15;11.50;;;10.20;99.90;;;;;;5092710;28;20385;-77
2021/06/06 03:28:33;;;;;;;10.52;9.30;;;10.50;99.90;;;;;;5091563;28;20040;-77
2021/06/06 03:31:05;;;;;;;12.63;10.80;;;10.70;99.90;;;;;;5091559;28;20028;-78
2021/06/06 03:33:53;;;;;;;12.38;9.52;;;11.00;99.90;;;;;;5092902;28;20394;-77
2021/06/06 03:36:27;;;;;;;10.85;9.73;;;11.30;99.90;;;;;;5086758;28;20025;-77
2021/06/06 03:38:54;;;;;;;11.25;8.20;;;11.50;99.90;;;;;;5092742;28;20485;-77
2021/06/06 03:41:22;;;;;;;8.50;6.57;;;11.60;99.90;;;;;;5092441;28;20478;-78
2021/06/06 03:43:48;;;;;;;9.15;7.07;;;11.70;99.90;;;;;;5091418;28;20054;-78
2021/06/06 03:46:14;;;;;;;6.07;5.57;;;11.90;99.90;;;;;;5091370;28;20055;-77
2021/06/06 03:48:40;;;;;;;7.38;6.10;;;12.00;99.90;;;;;;5091294;28;20066;-77
2021/06/06 03:51:07;;;;;;;7.88;5.72;;;12.10;99.90;;;;;;5091150;28;20028;-77
2021/06/06 03:53:35;;;;;;;7.03;6.35;;;12.20;99.90;;;;;;5092624;28;20024;-77
2021/06/06 03:56:02;;;;;;;8.35;7.18;;;12.40;99.90;;;;;;5092409;28;20441;-77
2021/06/06 03:58:28;;;;;;;9.32;7.88;;;12.50;98.70;;;;;;5091340;28;20089;-77
2021/06/06 04:00:54;;;;;;;7.82;7.03;;;12.70;98.70;;;;;;5092546;28;20474;-78
2021/06/06 04:03:20;;;;;;;8.13;7.32;;;12.80;99.40;;;;;;5092569;28;20146;-77
2021/06/06 04:05:49;;;;;;;8.40;7.05;;;13.00;98.50;;;;;;5091932;28;20066;-77
2021/06/06 04:08:15;;;;;;;10.20;8.15;;;13.10;97.80;;;;;;5095070;28;20120;-77
2021/06/06 04:10:41;;;;;;;10.05;8.65;;;13.20;97.30;;;;;;5096167;28;20024;-77
2021/06/06 04:13:08;;;;;;;9.93;8.48;;;13.40;97.00;;;;;;5094550;28;20134;-77
2021/06/06 04:15:33;;;;;;;12.55;8.07;;;13.50;97.60;;;;;;5096283;28;20031;-77
2021/06/06 04:18:20;;;;;;;10.63;9.45;;;13.60;98.40;;;;;;5096165;28;20106;-77
2021/06/06 04:20:48;;;;;;;10.93;9.80;;;13.80;99.60;;;;;;5094660;28;20043;-77
2021/06/06 04:23:14;;;;;;;14.40;10.43;;;13.90;99.90;;;;;;5096068;28;20113;-76
2021/06/06 04:25:41;;;;;;;13.75;11.68;;;14.10;99.90;;;;;;5094792;28;20063;-76
2021/06/06 04:28:07;;;;;;;14.02;11.27;;;14.30;99.90;;;;;;5095664;28;20029;-76
2021/06/06 04:30:33;;;;;;;12.35;10.90;;;14.40;99.90;;;;;;5094745;28;20021;-77
2021/06/06 04:33:02;;;;;;;10.23;9.07;;;14.70;99.90;;;;;;5094543;28;20032;-76
2021/06/06 04:35:28;;;;;;;14.43;12.23;;;14.80;99.90;;;;;;5095924;28;20016;-77
2021/06/06 04:37:54;;;;;;;13.63;12.23;;;14.90;99.90;;;;;;5094497;28;20066;-77
2021/06/06 04:40:20;;;;;;;14.15;11.82;;;15.10;99.90;;;;;;5094250;28;20028;-77
2021/06/06 04:42:46;;;;;;;17.17;11.23;;;15.40;99.90;;;;;;5128062;27;20119;-77
2021/06/06 04:45:14;;;;;;;13.43;10.88;;;15.50;99.90;;;;;;5094400;28;20108;-76
2021/06/06 04:47:40;;;;;;;13.48;10.20;;;15.90;99.90;;;;;;5095763;28;20067;-77
2021/06/06 04:50:08;;;;;;;11.32;9.38;;;16.10;99.90;;;;;;5093772;28;20024;-76
2021/06/06 04:52:37;;;;;;;11.60;9.68;;;16.40;99.90;;;;;;5094225;28;20024;-76
2021/06/06 04:55:09;;;;;;;10.60;9.02;;;16.60;99.90;;;;;;5124492;27;20020;-76
2021/06/06 04:57:35;;;;;;;;;;;16.80;99.90;;;;;;5074366;28;20017;-76
2021/06/06 05:00:02;;;;;;;10.75;9.75;;;16.90;99.90;;;;;;5075167;28;19985;-76
2021/06/06 05:02:28;;;;;;;9.68;8.55;;;17.10;99.90;;;;;;5075165;28;20147;-76
2021/06/06 05:04:54;;;;;;;9.35;8.45;;;17.20;99.90;;;;;;5073779;28;20054;-76
2021/06/06 05:07:20;;;;;;;9.65;8.65;;;17.30;99.90;;;;;;5074951;28;20032;-76
2021/06/06 05:09:48;;;;;;;10.85;9.57;;;17.50;99.90;;;;;;5092020;28;20016;-77
2021/06/06 05:12:14;;;;;;;8.48;7.57;;;17.60;99.70;;;;;;5088480;28;20028;-76
2021/06/06 05:14:40;;;;;;;9.68;8.23;;;17.70;95.80;;;;;;5094593;28;20035;-76
2021/06/06 05:17:06;;;;;;;9.38;7.63;;;17.70;95.70;;;;;;5092697;28;20120;-77
2021/06/06 05:19:34;;;;;;;9.35;8.25;;;17.90;95.70;;;;;;5092389;28;20109;-76
2021/06/06 05:21:59;;;;;;;9.85;8.65;;;17.90;94.90;;;;;;5094176;28;20031;-76
2021/06/06 05:24:25;;;;;;;12.18;8.48;;;18.00;93.20;;;;;;5093648;28;20028;-76
2021/06/06 05:26:51;;;;;;;8.15;6.90;;;18.00;95.70;;;;;;5127575;27;20063;-76
2021/06/06 05:29:17;;;;;;;9.20;6.95;;;18.20;91.10;;;;;;5093010;28;20032;-76
2021/06/06 05:31:42;;;;;;;7.22;6.53;;;18.30;86.80;;;;;;5093447;28;20016;-76
2021/06/06 05:34:08;;;;;;;7.35;6.57;;;18.30;83.50;;;;;;5094715;28;20032;-76
2021/06/06 05:36:35;;;;;;;8.00;5.50;;;18.40;84.10;;;;;;5092218;28;20111;-76
2021/06/06 05:39:01;;;;;;;6.10;5.55;;;18.40;79.30;;;;;;5092600;28;20023;-76
2021/06/06 05:41:27;;;;;;;5.40;5.00;;;18.50;76.20;;;;;;5093239;28;20012;-76
2021/06/06 05:43:52;;;;;;;5.80;4.97;;;18.60;76.70;;;;;;5094373;28;20080;-76
2021/06/06 05:46:20;;;;;;;7.53;6.30;;;18.60;74.90;;;;;;5093122;28;20474;-77
2021/06/06 05:48:45;;;;;;;6.55;5.47;;;18.70;78.60;;;;;;5092068;28;20430;-77
2021/06/06 05:51:11;;;;;;;7.00;5.68;;;18.70;75.80;;;;;;5094033;28;20058;-76
2021/06/06 05:53:37;;;;;;;6.75;6.15;;;18.80;79.20;;;;;;5092959;28;20462;-76
2021/06/06 05:56:05;;;;;;;8.15;6.93;;;18.80;78.80;;;;;;5093002;28;20027;-76
2021/06/06 05:58:32;;;;;;;7.55;6.53;;;18.90;77.80;;;;;;5094129;28;20150;-76
2021/06/06 06:00:58;;;;;;;6.65;5.97;;;19.00;79.40;;;;;;5092740;28;20016;-76
2021/06/06 06:03:23;;;;;;;6.68;5.38;;;19.10;71.60;;;;;;5094161;28;20028;-76
2021/06/06 06:05:51;;;;;;;8.40;6.00;;;19.10;70.40;;;;;;5092722;28;20367;-76
2021/06/06 06:08:22;;;;;;;8.88;6.13;;;19.20;72.20;;;;;;5092467;28;20032;-76
2021/06/06 06:10:49;;;;;;;6.97;6.32;;;19.40;77.60;;;;;;5092689;28;20036;-76
2021/06/06 06:13:16;;;;;;;7.63;6.82;;;19.50;73.00;;;;;;5093978;28;20024;-76
2021/06/06 06:15:42;;;;;;;7.30;5.80;;;19.50;69.90;;;;;;5093911;28;20020;-76
2021/06/06 06:18:10;;;;;;;9.43;6.50;;;19.60;67.90;;;;;;5093681;28;20163;-77
2021/06/06 06:20:36;;;;;;;6.40;5.75;;;19.60;64.30;;;;;;5093653;28;20028;-77
2021/06/06 06:23:03;;;;;;;6.32;5.72;;;19.60;65.50;;;;;;5091873;28;20381;-76
2021/06/06 06:25:28;;;;;;;6.57;5.97;;;19.60;63.60;;;;;;5093737;28;20160;-76
2021/06/06 06:27:54;;;;;;;8.85;6.07;;;19.70;64.30;;;;;;5092476;28;20036;-76
2021/06/06 06:30:27;;;;;;;7.25;5.88;;;19.50;63.20;;;;;;5091661;28;20069;-77
2021/06/06 06:32:53;;;;;;;8.25;4.78;;;19.50;64.30;;;;;;5092349;28;20020;-76
2021/06/06 06:35:19;;;;;;;6.93;5.57;;;19.80;64.80;;;;;;5092385;28;20066;-78
2021/06/06 06:37:45;;;;;;;9.55;5.57;;;19.90;64.00;;;;;;5092059;28;20028;-77
2021/06/06 06:40:14;;;;;;;6.03;5.43;;;20.00;62.70;;;;;;5093523;28;20020;-77
2021/06/06 06:42:40;;;;;;;6.03;4.43;;;20.10;62.50;;;;;;5092028;28;20214;-76
2021/06/06 06:45:08;;;;;;;5.97;5.43;;;20.10;60.70;;;;;;5085054;28;20099;-76
2021/06/06 06:47:34;;;;;;;5.25;4.72;;;20.20;60.60;;;;;;5089707;28;20132;-76
2021/06/06 06:50:00;;;;;;;5.35;4.88;;;20.20;60.20;;;;;;5088874;28;20114;-76
2021/06/06 06:52:25;;;;;;;5.95;5.10;;;20.40;63.00;;;;;;5086536;28;20036;-76
2021/06/06 06:54:52;;;;;;;6.32;4.63;;;20.50;62.70;;;;;;5090782;28;20024;-77
2021/06/06 06:57:18;;;;;;;6.82;4.38;;;20.40;60.80;;;;;;5090013;28;20047;-76
2021/06/06 06:59:44;;;;;;;5.95;4.75;;;20.50;60.90;;;;;;5089558;28;20024;-75
2021/06/06 07:02:10;;;;;;;6.00;4.60;;;20.60;61.40;;;;;;5114356;27;20028;-76
2021/06/06 07:04:36;;;;;;;5.00;4.57;;;20.70;60.40;;;;;;5088102;28;20063;-77
2021/06/06 07:07:02;;;;;;;7.65;5.13;;;20.60;58.50;;;;;;5086775;28;20079;-76
2021/06/06 07:09:28;;;;;;;6.13;5.18;;;20.50;59.40;;;;;;5089205;28;20028;-76
2021/06/06 07:11:56;;;;;;;4.38;3.97;;;20.50;58.80;;;;;;5087060;28;20031;-76
2021/06/06 07:14:22;;;;;;;5.70;5.20;;;20.60;58.70;;;;;;5090590;28;20012;-76
2021/06/06 07:16:48;;;;;;;5.07;4.63;;;20.60;58.40;;;;;;5088312;28;20036;-76
2021/06/06 07:19:14;;;;;;;5.88;4.55;;;20.80;59.20;;;;;;5089427;28;20446;-77
2021/06/06 07:21:40;;;;;;;5.38;4.38;;;20.80;57.30;;;;;;5090580;28;20044;-77
2021/06/06 07:24:06;;;;;;;5.72;5.13;;;20.70;56.40;;;;;;5090068;28;20023;-77
2021/06/06 07:26:40;;;;;;;5.63;4.47;;;20.90;57.40;;;;;;5090784;28;20111;-77
2021/06/06 07:29:10;;;;;;;5.32;4.78;;;21.00;56.50;;;;;;5088827;28;20470;-76
2021/06/06 07:31:37;;;;;;;8.30;5.53;;;21.10;56.20;;;;;;5087354;28;20032;-76
2021/06/06 07:34:03;;;;;;;6.65;5.28;;;21.00;57.00;;;;;;5089616;28;20070;-77
2021/06/06 07:36:30;;;;;;;5.60;5.07;;;21.10;56.40;;;;;;5089411;28;20040;-76
2021/06/06 07:38:56;;;;;;;5.13;4.65;;;21.20;55.80;;;;;;5088822;28;20065;-76
2021/06/06 07:41:22;;;;;;;7.95;6.38;;;21.00;54.40;;;;;;5093095;28;20035;-77
2021/06/06 07:43:49;;;;;;;4.97;4.47;;;21.10;56.20;;;;;;5092301;28;20012;-76
2021/06/06 07:46:15;;;;;;;15.25;6.35;;;21.10;55.10;;;;;;5093923;28;20036;-76
2021/06/06 07:48:43;;;;;;;6.07;5.47;;;21.10;56.80;;;;;;5089041;28;20085;-76
2021/06/06 07:51:09;;;;;;;5.20;4.70;;;20.80;56.00;;;;;;5089335;28;20089;-76
2021/06/06 07:53:35;;;;;;;7.50;4.90;;;20.90;56.30;;;;;;5093512;28;20032;-76
2021/06/06 07:56:01;;;;;;;5.80;4.63;;;21.00;54.90;;;;;;5091606;28;20030;-76
2021/06/06 07:58:32;;;;;;;5.82;4.95;;;21.20;54.50;;;;;;5091367;28;20024;-76
2021/06/06 08:00:58;;;;;;;9.80;4.50;;;21.30;56.20;;;;;;5089293;28;20469;-77
2021/06/06 08:03:27;;;;;;;5.47;4.72;;;21.40;54.90;;;;;;5089321;28;20028;-77
2021/06/06 08:05:53;;;;;;;5.45;4.95;;;21.60;53.60;;;;;;5092108;28;20036;-76
2021/06/06 08:08:18;;;;;;;6.00;5.40;;;21.60;53.40;;;;;;5092039;28;20028;-76
2021/06/06 08:10:49;;;;;;;5.82;5.03;;;21.40;53.50;;;;;;5088107;28;20016;-77
2021/06/06 08:13:15;;;;;;;7.45;5.03;;;21.70;53.90;;;;;;5092636;28;20095;-77
2021/06/06 08:15:41;;;;;;;5.07;4.60;;;21.80;52.60;;;;;;5090830;28;20043;-77
2021/06/06 08:18:09;;;;;;;5.40;4.90;;;21.90;52.90;;;;;;5090568;28;20020;-78
2021/06/06 08:20:40;;;;;;;7.03;4.88;;;22.00;52.20;;;;;;5090781;28;20401;-76
2021/06/06 08:23:08;;;;;;;4.50;3.80;;;22.10;52.50;;;;;;5112804;27;20366;-79
2021/06/06 08:25:34;;;;;;;5.78;5.03;;;22.00;53.00;;;;;;5090546;28;20115;-77
2021/06/06 08:28:00;;;;;;;6.28;5.68;;;21.60;52.60;;;;;;5090928;28;20046;-76
2021/06/06 08:30:33;;;;;;;5.45;4.95;;;21.80;53.10;;;;;;5092026;28;20409;-77
2021/06/06 08:32:58;;;;;;;4.80;4.25;;;21.90;50.90;;;;;;5090510;28;20393;-77
2021/06/06 08:35:24;;;;;;;5.30;4.70;;;21.90;51.00;;;;;;5094034;28;20040;-76
2021/06/06 08:37:50;;;;;;;5.15;4.57;;;22.10;51.60;;;;;;5073308;28;20023;-77
2021/06/06 08:40:33;;;;;;;4.75;4.28;;;22.20;52.80;;;;;;5091205;28;20477;-77
2021/06/06 08:43:01;;;;;;;6.43;5.35;;;22.10;51.20;;;;;;5090700;28;20016;-76
2021/06/06 08:45:35;;;;;;;4.47;4.07;;;22.20;52.90;;;;;;5090807;28;20036;-77
2021/06/06 08:48:06;;;;;;;8.65;4.90;;;22.30;51.60;;;;;;5087278;28;20028;-77
2021/06/06 08:50:38;;;;;;;6.65;4.30;;;22.30;50.70;;;;;;5090862;28;20121;-76
2021/06/06 08:53:15;;;;;;;4.90;4.35;;;22.20;49.80;;;;;;5081447;28;20012;-77
2021/06/06 08:56:32;;;;;;;4.05;3.70;;;22.50;51.60;;;;;;5090975;28;20038;-77
2021/06/06 08:59:17;;;;;;;4.38;3.97;;;22.70;50.40;;;;;;5072214;28;20025;-77
2021/06/06 09:01:47;;;;;;;5.68;4.32;;;22.80;48.70;;;;;;5090927;28;20028;-76
2021/06/06 09:04:13;;;;;;;5.25;3.92;;;23.00;49.90;;;;;;5090894;28;20032;-77
2021/06/06 09:06:43;;;;;;;4.25;3.85;;;23.10;48.10;;;;;;5091504;28;20382;-76
2021/06/06 09:09:10;;;;;;;3.97;3.60;;;23.00;48.50;;;;;;5090491;28;20074;-76
2021/06/06 09:11:37;;;;;;;6.80;3.47;;;23.00;48.60;;;;;;5091387;28;20446;-77
2021/06/06 09:14:03;;;;;;;6.55;4.55;;;22.90;50.40;;;;;;5088830;28;20397;-76
2021/06/06 09:16:34;;;;;;;4.57;4.07;;;23.20;50.70;;;;;;5090203;28;20028;-77
2021/06/06 09:19:05;;;;;;;4.30;3.90;;;23.20;50.00;;;;;;5089331;28;20697;-74
2021/06/06 09:21:46;;;;;;;5.00;4.22;;;23.30;51.20;;;;;;5091708;28;20024;-74
2021/06/06 09:24:13;;;;;;;5.78;3.55;;;23.00;49.70;;;;;;5090687;28;20016;-74
2021/06/06 09:26:40;;;;;;;3.95;3.15;;;22.90;49.70;;;;;;5091722;28;20505;-74
2021/06/06 09:29:20;;;;;;;4.05;3.65;;;23.00;47.40;;;;;;5092443;28;20069;-74
2021/06/06 09:31:46;;;;;;;5.82;3.83;;;23.00;49.00;;;;;;5089728;28;20028;-74
2021/06/06 09:34:22;;;;;;;4.03;3.72;;;22.90;48.70;;;;;;5091904;28;20020;-74
2021/06/06 09:37:11;;;;;;;4.57;3.92;;;23.10;49.90;;;;;;5092941;28;20478;-75
2021/06/06 09:39:45;;;;;;;3.88;3.47;;;22.90;48.10;;;;;;5092607;28;20028;-74
2021/06/06 09:42:46;;;;;;;4.57;4.10;;;22.50;49.60;;;;;;5090037;28;20024;-74
2021/06/06 09:45:32;;;;;;;3.78;3.40;;;22.00;50.30;;;;;;5088633;28;20074;-74
2021/06/06 09:48:04;;;;;;;5.35;4.38;;;21.90;50.60;;;;;;5090512;28;20401;-74
2021/06/06 09:50:41;;;;;;;3.88;3.58;;;22.30;50.10;;;;;;5090882;28;20119;-74
2021/06/06 09:53:13;;;;;;;4.93;3.15;;;22.60;48.30;;;;;;5089583;28;20473;-74
2021/06/06 09:55:39;;;;;;;4.95;3.80;;;23.00;47.00;;;;;;5090090;28;20073;-74
2021/06/06 09:58:07;;;;;;;4.13;3.38;;;23.40;47.50;;;;;;5091306;28;20024;-75
2021/06/06 10:00:49;;;;;;;5.47;3.42;;;23.70;46.30;;;;;;5092360;28;20044;-74
2021/06/06 10:04:13;;;;;;;6.17;3.13;;;23.90;46.20;;;;;;5091163;28;20023;-74
2021/06/06 10:06:41;;;;;;;5.82;3.03;;;23.70;45.40;;;;;;5035678;28;20048;-74
2021/06/06 10:09:18;;;;;;;4.35;3.40;;;23.50;45.60;;;;;;5047690;28;20071;-76
2021/06/06 10:12:06;;;;;;;4.07;3.78;;;23.50;46.20;;;;;;5073013;28;20032;-75
2021/06/06 10:14:37;;;;;;;4.03;3.50;;;23.60;45.80;;;;;;5091867;28;20359;-75
2021/06/06 10:17:08;;;;;;;3.35;3.00;;;23.70;45.10;;;;;;5089911;28;20044;-75
2021/06/06 10:19:40;;;;;;;4.13;3.25;;;23.70;45.70;;;;;;5088739;28;20040;-75
2021/06/06 10:22:15;;;;;;;3.73;3.03;;;23.40;44.80;;;;;;5088113;28;20032;-75
2021/06/06 10:24:57;;;;;;;3.17;2.65;;;23.40;45.40;;;;;;5088053;28;20266;-75
2021/06/06 10:27:32;;;;;;;2.80;2.60;;;23.70;44.40;;;;;;5113169;27;20674;-75
2021/06/06 10:30:06;;;;;;;3.92;3.35;;;23.60;44.30;;;;;;5086522;28;20093;-75
2021/06/06 10:32:43;;;;;;;6.65;3.80;;;23.30;45.10;;;;;;5087639;28;20085;-76
2021/06/06 10:35:25;;;;;;;5.28;3.28;;;23.40;44.60;;;;;;5090133;28;20032;-76
2021/06/06 10:37:56;;;;;;;4.45;3.47;;;23.20;45.40;;;;;;5087782;28;20190;-76
2021/06/06 10:40:31;;;;;;;3.70;3.00;;;22.90;47.30;;;;;;5089156;28;20042;-75
2021/06/06 10:43:02;;;;;;;5.20;3.78;;;22.70;46.30;;;;;;5088098;28;20032;-74
2021/06/06 10:45:55;;;;;;;3.40;2.70;;;22.60;47.20;;;;;;5091038;28;20560;-75
2021/06/06 10:48:34;;;;;;;4.85;3.15;;;22.60;47.50;;;;;;5088102;28;20059;-75
2021/06/06 10:51:33;;;;;;;6.22;2.90;;;22.60;46.20;;;;;;5069033;28;20436;-75
2021/06/06 10:54:05;;;;;;;3.33;3.00;;;23.10;45.60;;;;;;5069209;28;20032;-75
2021/06/06 10:56:36;;;;;;;2.80;2.60;;;23.60;46.80;;;;;;5090002;28;20028;-75
2021/06/06 10:59:06;;;;;;;4.22;2.97;;;24.10;45.60;;;;;;5090369;28;20311;-75
2021/06/06 11:01:44;;;;;;;4.07;3.75;;;24.30;45.90;;;;;;5091294;28;20031;-77
2021/06/06 11:04:14;;;;;;;4.38;2.60;;;24.40;46.40;;;;;;5086268;28;20039;-75
2021/06/06 11:06:42;;;;;;;3.58;2.88;;;24.60;45.10;;;;;;5091555;28;20374;-76
2021/06/06 11:09:23;;;;;;;4.07;3.33;;;24.50;43.90;;;;;;5088238;28;20043;-75
2021/06/06 11:12:03;;;;;;;3.08;2.85;;;24.70;43.40;;;;;;5088421;28;20021;-75
2021/06/06 11:14:49;;;;;;;5.28;2.85;;;24.90;43.30;;;;;;5084804;28;20016;-75
2021/06/06 11:17:35;;;;;;;5.47;3.22;;;24.80;44.80;;;;;;5093008;28;20028;-76
2021/06/06 11:20:24;;;;;;;3.35;2.72;;;24.80;44.40;;;;;;5088716;28;20048;-76
2021/06/06 11:22:50;;;;;;;3.38;2.58;;;24.70;43.10;;;;;;5088657;28;20040;-75
2021/06/06 11:25:44;;;;;;;3.55;3.22;;;24.70;42.50;;;;;;5089173;28;20043;-75
2021/06/06 11:28:30;;;;;;;4.60;2.78;;;24.60;43.70;;;;;;5077345;28;20433;-75
2021/06/06 11:30:56;;;;;;;3.05;2.30;;;24.70;42.40;;;;;;5088747;28;20467;-75
2021/06/06 11:33:45;;;;;;;4.15;2.47;;;24.90;43.00;;;;;;5091193;28;20090;-75
2021/06/06 11:36:12;;;;;;;3.92;3.05;;;25.00;41.30;;;;;;5090055;28;20031;-73
2021/06/06 11:38:43;;;;;;;4.80;3.00;;;25.20;42.00;;;;;;5089950;28;20044;-73
2021/06/06 11:41:16;;;;;;;3.10;2.80;;;24.80;41.60;;;;;;5090561;28;20035;-73
2021/06/06 11:43:54;;;;;;;3.53;2.67;;;25.00;41.00;;;;;;5090603;28;20040;-73
2021/06/06 11:46:32;;;;;;;2.97;2.78;;;24.90;41.30;;;;;;5091171;28;20385;-73
2021/06/06 11:49:17;;;;;;;3.20;2.50;;;24.70;41.40;;;;;;5068935;28;20166;-75
2021/06/06 11:51:46;;;;;;;4.22;3.13;;;24.60;42.90;;;;;;5070688;28;20019;-74
2021/06/06 11:54:31;;;;;;;3.47;3.17;;;24.30;43.20;;;;;;5071172;28;20129;-75
2021/06/06 11:57:01;;;;;;;3.22;2.97;;;24.30;44.00;;;;;;5083041;28;21034;-75
2021/06/06 11:59:45;;;;;;;4.47;2.88;;;24.50;42.50;;;;;;5089481;28;20024;-76
2021/06/06 12:02:17;;;;;;;3.80;2.83;;;24.70;42.30;;;;;;5090555;28;20039;-75
2021/06/06 12:04:43;;;;;;;3.70;2.85;;;24.80;41.30;;;;;;5083879;28;20023;-75
2021/06/06 12:07:23;;;;;;;3.83;3.08;;;24.90;41.50;;;;;;5090747;28;20039;-76
2021/06/06 12:09:51;;;;;;;3.15;2.78;;;25.00;41.90;;;;;;5092011;28;20020;-76
2021/06/06 12:12:25;;;;;;;3.03;2.72;;;25.10;42.80;;;;;;5092219;28;20032;-75
2021/06/06 12:15:02;;;;;;;4.45;2.88;;;25.20;41.40;;;;;;5092210;28;20028;-75
2021/06/06 12:17:28;;;;;;;3.47;3.17;;;25.30;40.40;;;;;;5092412;28;20028;-75
2021/06/06 12:19:58;;;;;;;6.32;3.08;;;25.40;39.70;;;;;;5092411;28;20020;-76
2021/06/06 12:22:34;;;;;;;2.92;2.50;;;25.40;40.00;;;;;;5092730;28;20016;-75
2021/06/06 12:25:09;;;;;;;5.15;2.88;;;25.50;39.10;;;;;;5090505;28;20016;-75
2021/06/06 12:27:59;;;;;;;3.80;3.05;;;25.80;39.20;;;;;;5091466;28;20401;-75
2021/06/06 12:30:27;;;;;;;5.07;2.80;;;25.80;39.70;;;;;;5086864;28;20107;-74
2021/06/06 12:33:13;;;;;;;4.93;3.42;;;25.70;39.00;;;;;;5094502;28;20032;-74
2021/06/06 12:35:44;;;;;;;3.72;2.33;;;25.60;39.70;;;;;;5094084;28;20481;-75
2021/06/06 12:38:16;;;;;;;6.03;3.00;;;25.80;40.20;;;;;;5095783;28;20377;-75
2021/06/06 12:40:46;;;;;;;4.88;2.88;;;25.50;38.80;;;;;;5093963;28;20126;-75
2021/06/06 12:43:17;;;;;;;3.50;2.85;;;25.30;39.50;;;;;;5095319;28;20439;-75
2021/06/06 12:45:46;;;;;;;3.50;2.60;;;25.60;40.00;;;;;;5093161;28;20402;-75
2021/06/06 12:48:11;;;;;;;3.72;2.28;;;25.80;40.10;;;;;;5094045;28;20486;-75
2021/06/06 12:50:38;;;;;;;3.05;2.30;;;25.90;39.20;;;;;;5094203;28;20126;-76
2021/06/06 12:53:23;;;;;;;2.10;1.98;;;25.90;38.30;;;;;;5095470;28;20474;-75
2021/06/06 12:55:50;;;;;;;4.97;2.78;;;25.50;36.20;;;;;;5094615;28;20026;-75
2021/06/06 12:58:16;;;;;;;4.82;3.10;;;25.50;36.70;;;;;;5093335;28;20020;-75
2021/06/06 13:00:46;;;;;;;3.55;3.15;;;25.50;37.20;;;;;;5094179;28;20065;-75
2021/06/06 13:03:27;;;;;;;3.50;3.15;;;25.50;37.00;;;;;;5094369;28;20504;-76
2021/06/06 13:05:55;;;;;;;3.53;2.85;;;25.60;37.50;;;;;;5093870;28;20032;-75
2021/06/06 13:08:37;;;;;;;2.70;2.50;;;25.70;37.80;;;;;;5089838;28;20059;-75